sensor_id;sensor_type;location;lat;lon;timestamp;P1;durP1;ratioP1;P2;durP2;ratioP2
42420;SDS011;28063;48.140;11.588;2023-12-20T00:00:08;0.80;;;0.80;;
42420;SDS011;28063;48.140;11.588;2023-12-20T00:02:34;2.15;;;1.17;;
42420;SDS011;28063;48.140;11.588;2023-12-20T00:05:00;1.50;;;1.17;;
42420;SDS011;28063;48.140;11.588;2023-12-20T00:07:26;2.58;;;1.30;;
42420;SDS011;28063;48.140;11.588;2023-12-20T00:09:52;1.02;;;1.02;;
42420;SDS011;28063;48.140;11.588;2023-12-20T00:12:18;2.55;;;1.60;;
42420;SDS011;28063;48.140;11.588;2023-12-20T00:14:45;2.78;;;1.60;;
42420;SDS011;28063;48.140;11.588;2023-12-20T00:17:11;1.90;;;1.08;;
42420;SDS011;28063;48.140;11.588;2023-12-20T00:19:37;1.90;;;1.10;;
42420;SDS011;28063;48.140;11.588;2023-12-20T00:22:03;1.80;;;1.20;;
42420;SDS011;28063;48.140;11.588;2023-12-20T00:24:29;1.23;;;1.00;;
42420;SDS011;28063;48.140;11.588;2023-12-20T00:26:55;1.83;;;1.25;;
42420;SDS011;28063;48.140;11.588;2023-12-20T00:29:22;1.30;;;0.88;;
42420;SDS011;28063;48.140;11.588;2023-12-20T00:31:48;1.02;;;0.93;;
42420;SDS011;28063;48.140;11.588;2023-12-20T00:34:14;0.85;;;0.80;;
42420;SDS011;28063;48.140;11.588;2023-12-20T00:36:40;1.50;;;1.08;;
42420;SDS011;28063;48.140;11.588;2023-12-20T00:39:06;1.52;;;1.23;;
42420;SDS011;28063;48.140;11.588;2023-12-20T00:41:32;1.63;;;1.20;;
42420;SDS011;28063;48.140;11.588;2023-12-20T00:43:58;1.20;;;1.10;;
42420;SDS011;28063;48.140;11.588;2023-12-20T00:46:24;1.42;;;1.17;;
42420;SDS011;28063;48.140;11.588;2023-12-20T00:48:50;3.47;;;1.55;;
42420;SDS011;28063;48.140;11.588;2023-12-20T00:51:16;2.33;;;1.40;;
42420;SDS011;28063;48.140;11.588;2023-12-20T00:53:42;1.95;;;1.30;;
42420;SDS011;28063;48.140;11.588;2023-12-20T00:56:09;2.33;;;1.45;;
42420;SDS011;28063;48.140;11.588;2023-12-20T00:58:35;1.65;;;1.10;;
42420;SDS011;28063;48.140;11.588;2023-12-20T01:01:01;1.52;;;1.20;;
42420;SDS011;28063;48.140;11.588;2023-12-20T01:03:27;1.15;;;0.98;;
42420;SDS011;28063;48.140;11.588;2023-12-20T01:05:53;2.72;;;0.98;;
42420;SDS011;28063;48.140;11.588;2023-12-20T01:08:19;1.10;;;1.00;;
42420;SDS011;28063;48.140;11.588;2023-12-20T01:10:45;1.13;;;0.93;;
42420;SDS011;28063;48.140;11.588;2023-12-20T01:13:12;1.10;;;0.75;;
42420;SDS011;28063;48.140;11.588;2023-12-20T01:15:38;1.23;;;1.08;;
42420;SDS011;28063;48.140;11.588;2023-12-20T01:18:04;0.80;;;0.80;;
42420;SDS011;28063;48.140;11.588;2023-12-20T01:20:30;1.38;;;0.73;;
42420;SDS011;28063;48.140;11.588;2023-12-20T01:22:56;0.63;;;0.63;;
42420;SDS011;28063;48.140;11.588;2023-12-20T01:25:22;1.58;;;0.98;;
42420;SDS011;28063;48.140;11.588;2023-12-20T01:27:48;1.50;;;0.90;;
42420;SDS011;28063;48.140;11.588;2023-12-20T01:30:15;0.82;;;0.82;;
42420;SDS011;28063;48.140;11.588;2023-12-20T01:32:41;1.10;;;0.95;;
42420;SDS011;28063;48.140;11.588;2023-12-20T01:35:07;1.10;;;0.90;;
42420;SDS011;28063;48.140;11.588;2023-12-20T01:37:33;2.47;;;1.15;;
42420;SDS011;28063;48.140;11.588;2023-12-20T01:39:59;1.20;;;0.80;;
42420;SDS011;28063;48.140;11.588;2023-12-20T01:42:25;0.77;;;0.77;;
42420;SDS011;28063;48.140;11.588;2023-12-20T01:44:51;1.08;;;0.90;;
42420;SDS011;28063;48.140;11.588;2023-12-20T01:47:17;1.70;;;1.15;;
42420;SDS011;28063;48.140;11.588;2023-12-20T01:49:44;0.70;;;0.70;;
42420;SDS011;28063;48.140;11.588;2023-12-20T01:52:10;1.23;;;1.13;;
42420;SDS011;28063;48.140;11.588;2023-12-20T01:54:36;0.47;;;0.47;;
42420;SDS011;28063;48.140;11.588;2023-12-20T01:57:03;1.10;;;0.95;;
42420;SDS011;28063;48.140;11.588;2023-12-20T01:59:29;0.60;;;0.50;;
42420;SDS011;28063;48.140;11.588;2023-12-20T02:01:56;2.40;;;0.68;;
42420;SDS011;28063;48.140;11.588;2023-12-20T02:04:22;0.70;;;0.65;;
42420;SDS011;28063;48.140;11.588;2023-12-20T02:06:48;0.98;;;0.80;;
42420;SDS011;28063;48.140;11.588;2023-12-20T02:09:18;0.52;;;0.52;;
42420;SDS011;28063;48.140;11.588;2023-12-20T02:11:44;0.73;;;0.73;;
42420;SDS011;28063;48.140;11.588;2023-12-20T02:14:10;0.90;;;0.70;;
42420;SDS011;28063;48.140;11.588;2023-12-20T02:16:36;0.70;;;0.68;;
42420;SDS011;28063;48.140;11.588;2023-12-20T02:19:03;0.77;;;0.77;;
42420;SDS011;28063;48.140;11.588;2023-12-20T02:21:33;0.73;;;0.52;;
42420;SDS011;28063;48.140;11.588;2023-12-20T02:24:00;0.73;;;0.73;;
42420;SDS011;28063;48.140;11.588;2023-12-20T02:26:26;0.70;;;0.70;;
42420;SDS011;28063;48.140;11.588;2023-12-20T02:28:53;0.40;;;0.40;;
42420;SDS011;28063;48.140;11.588;2023-12-20T02:31:22;0.88;;;0.70;;
42420;SDS011;28063;48.140;11.588;2023-12-20T02:33:49;0.88;;;0.55;;
42420;SDS011;28063;48.140;11.588;2023-12-20T02:36:15;0.50;;;0.50;;
42420;SDS011;28063;48.140;11.588;2023-12-20T02:38:41;0.65;;;0.65;;
42420;SDS011;28063;48.140;11.588;2023-12-20T02:41:07;0.63;;;0.35;;
42420;SDS011;28063;48.140;11.588;2023-12-20T02:43:33;0.60;;;0.60;;
42420;SDS011;28063;48.140;11.588;2023-12-20T02:45:59;0.40;;;0.40;;
42420;SDS011;28063;48.140;11.588;2023-12-20T02:48:25;0.60;;;0.45;;
42420;SDS011;28063;48.140;11.588;2023-12-20T02:50:51;0.40;;;0.40;;
42420;SDS011;28063;48.140;11.588;2023-12-20T02:53:18;0.45;;;0.45;;
42420;SDS011;28063;48.140;11.588;2023-12-20T02:55:44;0.40;;;0.40;;
42420;SDS011;28063;48.140;11.588;2023-12-20T02:58:10;0.20;;;0.20;;
42420;SDS011;28063;48.140;11.588;2023-12-20T03:00:36;0.25;;;0.25;;
42420;SDS011;28063;48.140;11.588;2023-12-20T03:03:02;0.30;;;0.30;;
42420;SDS011;28063;48.140;11.588;2023-12-20T03:05:28;0.45;;;0.35;;
42420;SDS011;28063;48.140;11.588;2023-12-20T03:07:54;1.60;;;0.30;;
42420;SDS011;28063;48.140;11.588;2023-12-20T03:10:20;0.52;;;0.30;;
42420;SDS011;28063;48.140;11.588;2023-12-20T03:12:46;0.47;;;0.47;;
42420;SDS011;28063;48.140;11.588;2023-12-20T03:15:13;3.70;;;0.52;;
42420;SDS011;28063;48.140;11.588;2023-12-20T03:17:39;0.75;;;0.50;;
42420;SDS011;28063;48.140;11.588;2023-12-20T03:20:05;0.55;;;0.52;;
42420;SDS011;28063;48.140;11.588;2023-12-20T03:22:31;0.60;;;0.50;;
42420;SDS011;28063;48.140;11.588;2023-12-20T03:24:57;1.05;;;0.30;;
42420;SDS011;28063;48.140;11.588;2023-12-20T03:27:23;0.68;;;0.55;;
42420;SDS011;28063;48.140;11.588;2023-12-20T03:29:50;0.50;;;0.30;;
42420;SDS011;28063;48.140;11.588;2023-12-20T03:32:16;0.63;;;0.63;;
42420;SDS011;28063;48.140;11.588;2023-12-20T03:34:42;0.45;;;0.45;;
42420;SDS011;28063;48.140;11.588;2023-12-20T03:37:08;0.38;;;0.35;;
42420;SDS011;28063;48.140;11.588;2023-12-20T03:39:34;4.20;;;0.85;;
42420;SDS011;28063;48.140;11.588;2023-12-20T03:42:00;0.40;;;0.40;;
42420;SDS011;28063;48.140;11.588;2023-12-20T03:44:26;0.63;;;0.38;;
42420;SDS011;28063;48.140;11.588;2023-12-20T03:46:53;0.63;;;0.40;;
42420;SDS011;28063;48.140;11.588;2023-12-20T03:49:19;1.23;;;0.40;;
42420;SDS011;28063;48.140;11.588;2023-12-20T03:51:45;1.33;;;0.50;;
42420;SDS011;28063;48.140;11.588;2023-12-20T03:54:11;0.30;;;0.30;;
42420;SDS011;28063;48.140;11.588;2023-12-20T03:56:37;0.32;;;0.32;;
42420;SDS011;28063;48.140;11.588;2023-12-20T03:59:03;0.80;;;0.50;;
42420;SDS011;28063;48.140;11.588;2023-12-20T04:01:29;0.52;;;0.52;;
42420;SDS011;28063;48.140;11.588;2023-12-20T04:03:55;0.45;;;0.40;;
42420;SDS011;28063;48.140;11.588;2023-12-20T04:06:21;0.38;;;0.30;;
42420;SDS011;28063;48.140;11.588;2023-12-20T04:08:48;0.60;;;0.38;;
42420;SDS011;28063;48.140;11.588;2023-12-20T04:11:14;0.30;;;0.30;;
42420;SDS011;28063;48.140;11.588;2023-12-20T04:13:40;1.75;;;0.28;;
42420;SDS011;28063;48.140;11.588;2023-12-20T04:16:06;0.60;;;0.60;;
42420;SDS011;28063;48.140;11.588;2023-12-20T04:18:32;0.55;;;0.55;;
42420;SDS011;28063;48.140;11.588;2023-12-20T04:20:58;1.00;;;0.47;;
42420;SDS011;28063;48.140;11.588;2023-12-20T04:23:24;0.52;;;0.50;;
42420;SDS011;28063;48.140;11.588;2023-12-20T04:25:50;0.60;;;0.60;;
42420;SDS011;28063;48.140;11.588;2023-12-20T04:28:16;0.73;;;0.30;;
42420;SDS011;28063;48.140;11.588;2023-12-20T04:30:42;0.70;;;0.70;;
42420;SDS011;28063;48.140;11.588;2023-12-20T04:33:09;0.47;;;0.30;;
42420;SDS011;28063;48.140;11.588;2023-12-20T04:35:35;0.35;;;0.35;;
42420;SDS011;28063;48.140;11.588;2023-12-20T04:38:01;0.40;;;0.40;;
42420;SDS011;28063;48.140;11.588;2023-12-20T04:40:27;0.50;;;0.50;;
42420;SDS011;28063;48.140;11.588;2023-12-20T04:42:53;0.30;;;0.30;;
42420;SDS011;28063;48.140;11.588;2023-12-20T04:45:19;2.63;;;0.70;;
42420;SDS011;28063;48.140;11.588;2023-12-20T04:47:45;1.42;;;0.52;;
42420;SDS011;28063;48.140;11.588;2023-12-20T04:50:12;0.80;;;0.65;;
42420;SDS011;28063;48.140;11.588;2023-12-20T04:52:39;2.13;;;0.80;;
42420;SDS011;28063;48.140;11.588;2023-12-20T04:55:05;0.98;;;0.90;;
42420;SDS011;28063;48.140;11.588;2023-12-20T04:57:31;1.70;;;0.70;;
42420;SDS011;28063;48.140;11.588;2023-12-20T04:59:58;1.05;;;0.55;;
42420;SDS011;28063;48.140;11.588;2023-12-20T05:02:24;1.02;;;0.60;;
42420;SDS011;28063;48.140;11.588;2023-12-20T05:04:50;1.05;;;0.80;;
42420;SDS011;28063;48.140;11.588;2023-12-20T05:07:16;1.27;;;0.77;;
42420;SDS011;28063;48.140;11.588;2023-12-20T05:09:42;0.80;;;0.80;;
42420;SDS011;28063;48.140;11.588;2023-12-20T05:12:08;1.17;;;0.73;;
42420;SDS011;28063;48.140;11.588;2023-12-20T05:14:45;0.80;;;0.80;;
42420;SDS011;28063;48.140;11.588;2023-12-20T05:20:54;1.13;;;1.02;;
42420;SDS011;28063;48.140;11.588;2023-12-20T05:23:20;1.75;;;0.88;;
42420;SDS011;28063;48.140;11.588;2023-12-20T05:25:46;1.52;;;1.00;;
42420;SDS011;28063;48.140;11.588;2023-12-20T05:28:12;2.47;;;1.05;;
42420;SDS011;28063;48.140;11.588;2023-12-20T05:30:38;1.30;;;1.20;;
42420;SDS011;28063;48.140;11.588;2023-12-20T05:33:04;1.95;;;1.40;;
42420;SDS011;28063;48.140;11.588;2023-12-20T05:35:31;2.33;;;1.45;;
42420;SDS011;28063;48.140;11.588;2023-12-20T05:37:57;1.42;;;1.23;;
42420;SDS011;28063;48.140;11.588;2023-12-20T05:40:23;2.60;;;1.45;;
42420;SDS011;28063;48.140;11.588;2023-12-20T05:42:49;4.90;;;3.00;;
42420;SDS011;28063;48.140;11.588;2023-12-20T05:45:15;1.20;;;1.10;;
42420;SDS011;28063;48.140;11.588;2023-12-20T05:47:41;2.25;;;1.63;;
42420;SDS011;28063;48.140;11.588;2023-12-20T05:50:07;4.43;;;1.75;;
42420;SDS011;28063;48.140;11.588;2023-12-20T05:52:34;2.05;;;1.50;;
42420;SDS011;28063;48.140;11.588;2023-12-20T05:55:00;2.33;;;1.10;;
42420;SDS011;28063;48.140;11.588;2023-12-20T05:57:26;1.40;;;1.30;;
42420;SDS011;28063;48.140;11.588;2023-12-20T05:59:52;1.58;;;1.40;;
42420;SDS011;28063;48.140;11.588;2023-12-20T06:02:19;1.55;;;1.35;;
42420;SDS011;28063;48.140;11.588;2023-12-20T06:04:45;2.25;;;1.30;;
42420;SDS011;28063;48.140;11.588;2023-12-20T06:07:11;2.58;;;1.30;;
42420;SDS011;28063;48.140;11.588;2023-12-20T06:09:38;1.25;;;1.13;;
42420;SDS011;28063;48.140;11.588;2023-12-20T06:12:04;1.23;;;1.10;;
42420;SDS011;28063;48.140;11.588;2023-12-20T06:14:30;2.47;;;1.63;;
42420;SDS011;28063;48.140;11.588;2023-12-20T06:16:57;2.78;;;1.23;;
42420;SDS011;28063;48.140;11.588;2023-12-20T06:19:23;3.22;;;1.25;;
42420;SDS011;28063;48.140;11.588;2023-12-20T06:21:49;1.85;;;1.10;;
42420;SDS011;28063;48.140;11.588;2023-12-20T06:24:15;1.58;;;1.48;;
42420;SDS011;28063;48.140;11.588;2023-12-20T06:26:41;2.40;;;1.50;;
42420;SDS011;28063;48.140;11.588;2023-12-20T06:29:08;0.95;;;0.70;;
42420;SDS011;28063;48.140;11.588;2023-12-20T06:31:34;1.30;;;1.20;;
42420;SDS011;28063;48.140;11.588;2023-12-20T06:34:00;1.40;;;1.30;;
42420;SDS011;28063;48.140;11.588;2023-12-20T06:36:27;1.98;;;1.20;;
42420;SDS011;28063;48.140;11.588;2023-12-20T06:38:53;5.30;;;1.60;;
42420;SDS011;28063;48.140;11.588;2023-12-20T06:41:19;2.05;;;1.40;;
42420;SDS011;28063;48.140;11.588;2023-12-20T06:43:45;2.15;;;1.45;;
42420;SDS011;28063;48.140;11.588;2023-12-20T06:46:12;3.17;;;1.52;;
42420;SDS011;28063;48.140;11.588;2023-12-20T06:48:38;1.40;;;1.10;;
42420;SDS011;28063;48.140;11.588;2023-12-20T06:51:05;4.05;;;1.33;;
42420;SDS011;28063;48.140;11.588;2023-12-20T06:53:31;1.92;;;1.65;;
42420;SDS011;28063;48.140;11.588;2023-12-20T06:55:57;2.95;;;1.40;;
42420;SDS011;28063;48.140;11.588;2023-12-20T06:58:24;1.65;;;1.40;;
42420;SDS011;28063;48.140;11.588;2023-12-20T07:00:50;3.35;;;1.55;;
42420;SDS011;28063;48.140;11.588;2023-12-20T07:03:16;1.60;;;1.08;;
42420;SDS011;28063;48.140;11.588;2023-12-20T07:05:43;51.67;;;23.00;;
42420;SDS011;28063;48.140;11.588;2023-12-20T07:08:09;39.97;;;18.25;;
42420;SDS011;28063;48.140;11.588;2023-12-20T07:10:36;33.05;;;15.60;;
42420;SDS011;28063;48.140;11.588;2023-12-20T07:13:02;14.77;;;8.55;;
42420;SDS011;28063;48.140;11.588;2023-12-20T07:15:28;9.50;;;5.63;;
42420;SDS011;28063;48.140;11.588;2023-12-20T07:17:54;4.07;;;3.67;;
42420;SDS011;28063;48.140;11.588;2023-12-20T07:20:21;3.67;;;2.72;;
42420;SDS011;28063;48.140;11.588;2023-12-20T07:22:47;2.83;;;2.00;;
42420;SDS011;28063;48.140;11.588;2023-12-20T07:25:13;1.75;;;1.35;;
42420;SDS011;28063;48.140;11.588;2023-12-20T07:27:39;4.32;;;3.08;;
42420;SDS011;28063;48.140;11.588;2023-12-20T07:30:05;2.40;;;2.20;;
42420;SDS011;28063;48.140;11.588;2023-12-20T07:32:32;2.90;;;0.98;;
42420;SDS011;28063;48.140;11.588;2023-12-20T07:34:59;1.38;;;0.90;;
42420;SDS011;28063;48.140;11.588;2023-12-20T07:37:25;2.47;;;1.10;;
42420;SDS011;28063;48.140;11.588;2023-12-20T07:39:51;1.30;;;1.17;;
42420;SDS011;28063;48.140;11.588;2023-12-20T07:42:17;0.57;;;0.57;;
42420;SDS011;28063;48.140;11.588;2023-12-20T07:44:43;1.15;;;0.55;;
42420;SDS011;28063;48.140;11.588;2023-12-20T07:47:09;0.50;;;0.45;;
42420;SDS011;28063;48.140;11.588;2023-12-20T07:49:40;0.50;;;0.50;;
42420;SDS011;28063;48.140;11.588;2023-12-20T07:52:06;1.88;;;1.45;;
42420;SDS011;28063;48.140;11.588;2023-12-20T07:54:33;9.98;;;6.40;;
42420;SDS011;28063;48.140;11.588;2023-12-20T07:56:59;7.28;;;5.15;;
42420;SDS011;28063;48.140;11.588;2023-12-20T07:59:25;4.32;;;3.15;;
42420;SDS011;28063;48.140;11.588;2023-12-20T08:01:51;4.50;;;3.03;;
42420;SDS011;28063;48.140;11.588;2023-12-20T08:04:17;6.75;;;3.80;;
42420;SDS011;28063;48.140;11.588;2023-12-20T08:06:43;3.45;;;2.80;;
42420;SDS011;28063;48.140;11.588;2023-12-20T08:09:10;3.33;;;2.88;;
42420;SDS011;28063;48.140;11.588;2023-12-20T08:11:36;4.38;;;3.22;;
42420;SDS011;28063;48.140;11.588;2023-12-20T08:14:02;2.33;;;2.13;;
42420;SDS011;28063;48.140;11.588;2023-12-20T08:16:28;4.53;;;4.13;;
42420;SDS011;28063;48.140;11.588;2023-12-20T08:18:54;4.68;;;3.47;;
42420;SDS011;28063;48.140;11.588;2023-12-20T08:21:20;2.20;;;2.00;;
42420;SDS011;28063;48.140;11.588;2023-12-20T08:23:47;1.48;;;1.10;;
42420;SDS011;28063;48.140;11.588;2023-12-20T08:26:14;1.60;;;1.30;;
42420;SDS011;28063;48.140;11.588;2023-12-20T08:28:45;1.92;;;0.90;;
42420;SDS011;28063;48.140;11.588;2023-12-20T08:31:14;0.82;;;0.82;;
42420;SDS011;28063;48.140;11.588;2023-12-20T08:33:41;0.85;;;0.85;;
42420;SDS011;28063;48.140;11.588;2023-12-20T08:36:07;0.55;;;0.55;;
42420;SDS011;28063;48.140;11.588;2023-12-20T08:38:33;0.70;;;0.70;;
42420;SDS011;28063;48.140;11.588;2023-12-20T08:40:59;0.98;;;0.77;;
42420;SDS011;28063;48.140;11.588;2023-12-20T08:43:26;2.10;;;0.93;;
42420;SDS011;28063;48.140;11.588;2023-12-20T08:45:52;0.60;;;0.50;;
42420;SDS011;28063;48.140;11.588;2023-12-20T08:48:18;0.85;;;0.70;;
42420;SDS011;28063;48.140;11.588;2023-12-20T08:50:45;0.93;;;0.85;;
42420;SDS011;28063;48.140;11.588;2023-12-20T08:53:12;0.80;;;0.75;;
42420;SDS011;28063;48.140;11.588;2023-12-20T08:55:38;0.93;;;0.85;;
42420;SDS011;28063;48.140;11.588;2023-12-20T08:58:04;0.60;;;0.60;;
42420;SDS011;28063;48.140;11.588;2023-12-20T09:00:32;0.88;;;0.60;;
42420;SDS011;28063;48.140;11.588;2023-12-20T09:02:58;1.25;;;1.15;;
42420;SDS011;28063;48.140;11.588;2023-12-20T09:05:24;1.60;;;1.48;;
42420;SDS011;28063;48.140;11.588;2023-12-20T09:07:50;2.17;;;1.10;;
42420;SDS011;28063;48.140;11.588;2023-12-20T09:10:17;1.50;;;1.38;;
42420;SDS011;28063;48.140;11.588;2023-12-20T09:12:47;1.02;;;0.80;;
42420;SDS011;28063;48.140;11.588;2023-12-20T09:15:13;0.80;;;0.80;;
42420;SDS011;28063;48.140;11.588;2023-12-20T09:17:40;0.60;;;0.60;;
42420;SDS011;28063;48.140;11.588;2023-12-20T09:20:06;0.88;;;0.88;;
42420;SDS011;28063;48.140;11.588;2023-12-20T09:22:33;1.05;;;0.70;;
42420;SDS011;28063;48.140;11.588;2023-12-20T09:25:00;1.50;;;0.50;;
42420;SDS011;28063;48.140;11.588;2023-12-20T09:27:27;0.63;;;0.63;;
42420;SDS011;28063;48.140;11.588;2023-12-20T09:29:53;2.03;;;0.82;;
42420;SDS011;28063;48.140;11.588;2023-12-20T09:32:19;0.63;;;0.60;;
42420;SDS011;28063;48.140;11.588;2023-12-20T09:34:45;2.75;;;0.90;;
42420;SDS011;28063;48.140;11.588;2023-12-20T09:37:12;0.57;;;0.57;;
42420;SDS011;28063;48.140;11.588;2023-12-20T09:39:39;0.82;;;0.80;;
42420;SDS011;28063;48.140;11.588;2023-12-20T09:42:05;0.60;;;0.57;;
42420;SDS011;28063;48.140;11.588;2023-12-20T09:44:31;2.67;;;0.77;;
42420;SDS011;28063;48.140;11.588;2023-12-20T09:46:59;1.10;;;0.65;;
42420;SDS011;28063;48.140;11.588;2023-12-20T09:49:27;1.40;;;0.52;;
42420;SDS011;28063;48.140;11.588;2023-12-20T09:51:54;1.60;;;0.65;;
42420;SDS011;28063;48.140;11.588;2023-12-20T09:54:21;1.45;;;0.93;;
42420;SDS011;28063;48.140;11.588;2023-12-20T09:56:47;4.25;;;2.83;;
42420;SDS011;28063;48.140;11.588;2023-12-20T09:59:14;12.60;;;7.95;;
42420;SDS011;28063;48.140;11.588;2023-12-20T10:01:40;13.40;;;9.32;;
42420;SDS011;28063;48.140;11.588;2023-12-20T10:04:07;10.65;;;7.85;;
42420;SDS011;28063;48.140;11.588;2023-12-20T10:06:37;8.77;;;4.88;;
42420;SDS011;28063;48.140;11.588;2023-12-20T10:09:03;7.80;;;5.18;;
42420;SDS011;28063;48.140;11.588;2023-12-20T10:11:30;6.22;;;5.63;;
42420;SDS011;28063;48.140;11.588;2023-12-20T10:14:00;2.42;;;2.10;;
42420;SDS011;28063;48.140;11.588;2023-12-20T10:16:26;1.50;;;1.40;;
42420;SDS011;28063;48.140;11.588;2023-12-20T10:18:53;1.30;;;1.20;;
42420;SDS011;28063;48.140;11.588;2023-12-20T10:21:19;1.85;;;1.30;;
42420;SDS011;28063;48.140;11.588;2023-12-20T10:23:45;2.55;;;0.90;;
42420;SDS011;28063;48.140;11.588;2023-12-20T10:26:19;0.77;;;0.73;;
42420;SDS011;28063;48.140;11.588;2023-12-20T10:28:46;5.18;;;1.13;;
42420;SDS011;28063;48.140;11.588;2023-12-20T10:31:25;1.63;;;0.73;;
42420;SDS011;28063;48.140;11.588;2023-12-20T10:33:51;1.08;;;0.98;;
42420;SDS011;28063;48.140;11.588;2023-12-20T10:36:17;0.85;;;0.70;;
42420;SDS011;28063;48.140;11.588;2023-12-20T10:38:44;1.42;;;0.65;;
42420;SDS011;28063;48.140;11.588;2023-12-20T10:41:10;1.50;;;1.00;;
42420;SDS011;28063;48.140;11.588;2023-12-20T10:43:37;1.02;;;0.82;;
42420;SDS011;28063;48.140;11.588;2023-12-20T10:46:03;3.00;;;0.77;;
42420;SDS011;28063;48.140;11.588;2023-12-20T10:48:30;2.13;;;0.88;;
42420;SDS011;28063;48.140;11.588;2023-12-20T10:50:57;0.63;;;0.63;;
42420;SDS011;28063;48.140;11.588;2023-12-20T10:53:24;1.63;;;0.80;;
42420;SDS011;28063;48.140;11.588;2023-12-20T10:55:52;0.70;;;0.70;;
42420;SDS011;28063;48.140;11.588;2023-12-20T10:58:18;1.27;;;0.93;;
42420;SDS011;28063;48.140;11.588;2023-12-20T11:00:46;1.33;;;0.65;;
42420;SDS011;28063;48.140;11.588;2023-12-20T11:03:13;0.75;;;0.75;;
42420;SDS011;28063;48.140;11.588;2023-12-20T11:05:46;2.00;;;0.90;;
42420;SDS011;28063;48.140;11.588;2023-12-20T11:13:37;1.60;;;0.98;;
42420;SDS011;28063;48.140;11.588;2023-12-20T11:16:04;1.48;;;1.10;;
42420;SDS011;28063;48.140;11.588;2023-12-20T11:18:30;2.25;;;1.35;;
42420;SDS011;28063;48.140;11.588;2023-12-20T11:21:04;2.03;;;1.70;;
42420;SDS011;28063;48.140;11.588;2023-12-20T11:23:31;3.75;;;1.90;;
42420;SDS011;28063;48.140;11.588;2023-12-20T11:26:01;3.45;;;2.05;;
42420;SDS011;28063;48.140;11.588;2023-12-20T11:28:27;3.17;;;2.13;;
42420;SDS011;28063;48.140;11.588;2023-12-20T11:30:55;1.92;;;1.48;;
42420;SDS011;28063;48.140;11.588;2023-12-20T11:33:27;4.32;;;2.20;;
42420;SDS011;28063;48.140;11.588;2023-12-20T11:35:56;1.73;;;1.40;;
42420;SDS011;28063;48.140;11.588;2023-12-20T11:38:22;1.25;;;1.02;;
42420;SDS011;28063;48.140;11.588;2023-12-20T11:40:49;1.45;;;1.05;;
42420;SDS011;28063;48.140;11.588;2023-12-20T11:46:07;2.20;;;1.20;;
42420;SDS011;28063;48.140;11.588;2023-12-20T11:48:37;1.65;;;1.27;;
42420;SDS011;28063;48.140;11.588;2023-12-20T11:51:11;2.33;;;0.90;;
42420;SDS011;28063;48.140;11.588;2023-12-20T11:53:37;2.17;;;1.17;;
42420;SDS011;28063;48.140;11.588;2023-12-20T11:58:33;2.67;;;1.63;;
42420;SDS011;28063;48.140;11.588;2023-12-20T12:01:00;2.20;;;1.00;;
42420;SDS011;28063;48.140;11.588;2023-12-20T12:03:32;7.50;;;1.83;;
42420;SDS011;28063;48.140;11.588;2023-12-20T12:05:58;1.52;;;1.35;;
42420;SDS011;28063;48.140;11.588;2023-12-20T12:08:25;2.72;;;1.20;;
42420;SDS011;28063;48.140;11.588;2023-12-20T12:10:51;1.90;;;1.20;;
42420;SDS011;28063;48.140;11.588;2023-12-20T12:13:18;1.00;;;0.90;;
42420;SDS011;28063;48.140;11.588;2023-12-20T12:15:44;1.00;;;0.90;;
42420;SDS011;28063;48.140;11.588;2023-12-20T12:18:10;1.75;;;1.40;;
42420;SDS011;28063;48.140;11.588;2023-12-20T12:20:36;2.55;;;1.40;;
42420;SDS011;28063;48.140;11.588;2023-12-20T12:23:04;1.35;;;1.10;;
42420;SDS011;28063;48.140;11.588;2023-12-20T12:25:31;2.28;;;1.25;;
42420;SDS011;28063;48.140;11.588;2023-12-20T12:27:58;1.55;;;0.80;;
42420;SDS011;28063;48.140;11.588;2023-12-20T12:30:24;1.75;;;0.88;;
42420;SDS011;28063;48.140;11.588;2023-12-20T12:32:51;2.05;;;1.13;;
42420;SDS011;28063;48.140;11.588;2023-12-20T12:35:18;0.90;;;0.80;;
42420;SDS011;28063;48.140;11.588;2023-12-20T12:37:44;1.92;;;1.35;;
42420;SDS011;28063;48.140;11.588;2023-12-20T12:40:11;1.92;;;1.45;;
42420;SDS011;28063;48.140;11.588;2023-12-20T12:42:38;1.42;;;1.10;;
42420;SDS011;28063;48.140;11.588;2023-12-20T12:45:04;1.23;;;0.68;;
42420;SDS011;28063;48.140;11.588;2023-12-20T12:47:31;2.72;;;1.33;;
42420;SDS011;28063;48.140;11.588;2023-12-20T12:49:57;1.27;;;1.08;;
42420;SDS011;28063;48.140;11.588;2023-12-20T12:52:23;2.50;;;0.90;;
42420;SDS011;28063;48.140;11.588;2023-12-20T12:54:49;2.03;;;1.58;;
42420;SDS011;28063;48.140;11.588;2023-12-20T12:57:16;2.55;;;2.15;;
42420;SDS011;28063;48.140;11.588;2023-12-20T12:59:42;2.58;;;2.13;;
42420;SDS011;28063;48.140;11.588;2023-12-20T13:02:11;2.13;;;1.92;;
42420;SDS011;28063;48.140;11.588;2023-12-20T13:04:37;1.60;;;1.50;;
42420;SDS011;28063;48.140;11.588;2023-12-20T13:07:03;3.22;;;2.92;;
42420;SDS011;28063;48.140;11.588;2023-12-20T13:09:29;2.70;;;2.47;;
42420;SDS011;28063;48.140;11.588;2023-12-20T13:11:55;2.92;;;2.55;;
42420;SDS011;28063;48.140;11.588;2023-12-20T13:14:22;2.55;;;1.20;;
42420;SDS011;28063;48.140;11.588;2023-12-20T13:16:48;2.53;;;2.33;;
42420;SDS011;28063;48.140;11.588;2023-12-20T13:19:14;2.50;;;2.40;;
42420;SDS011;28063;48.140;11.588;2023-12-20T13:21:40;2.78;;;2.15;;
42420;SDS011;28063;48.140;11.588;2023-12-20T13:24:06;2.80;;;2.53;;
42420;SDS011;28063;48.140;11.588;2023-12-20T13:26:32;2.90;;;2.30;;
42420;SDS011;28063;48.140;11.588;2023-12-20T13:28:59;2.67;;;2.47;;
42420;SDS011;28063;48.140;11.588;2023-12-20T13:31:25;2.72;;;1.77;;
42420;SDS011;28063;48.140;11.588;2023-12-20T13:33:51;2.15;;;1.40;;
42420;SDS011;28063;48.140;11.588;2023-12-20T13:36:20;3.22;;;1.80;;
42420;SDS011;28063;48.140;11.588;2023-12-20T13:38:46;3.90;;;1.48;;
42420;SDS011;28063;48.140;11.588;2023-12-20T13:41:12;1.13;;;0.88;;
42420;SDS011;28063;48.140;11.588;2023-12-20T13:43:38;1.65;;;1.55;;
42420;SDS011;28063;48.140;11.588;2023-12-20T13:46:04;3.00;;;1.20;;
42420;SDS011;28063;48.140;11.588;2023-12-20T13:48:30;1.80;;;1.20;;
42420;SDS011;28063;48.140;11.588;2023-12-20T13:50:56;5.22;;;1.65;;
42420;SDS011;28063;48.140;11.588;2023-12-20T13:53:22;1.52;;;1.30;;
42420;SDS011;28063;48.140;11.588;2023-12-20T13:55:48;2.05;;;1.40;;
42420;SDS011;28063;48.140;11.588;2023-12-20T13:58:15;7.00;;;1.63;;
42420;SDS011;28063;48.140;11.588;2023-12-20T14:00:41;2.03;;;1.15;;
42420;SDS011;28063;48.140;11.588;2023-12-20T14:03:07;3.10;;;1.27;;
42420;SDS011;28063;48.140;11.588;2023-12-20T14:05:35;3.05;;;1.85;;
42420;SDS011;28063;48.140;11.588;2023-12-20T14:08:01;5.38;;;1.60;;
42420;SDS011;28063;48.140;11.588;2023-12-20T14:10:27;2.55;;;1.55;;
42420;SDS011;28063;48.140;11.588;2023-12-20T14:12:54;2.33;;;1.48;;
42420;SDS011;28063;48.140;11.588;2023-12-20T14:15:20;1.85;;;1.23;;
42420;SDS011;28063;48.140;11.588;2023-12-20T14:17:46;3.33;;;1.30;;
42420;SDS011;28063;48.140;11.588;2023-12-20T14:20:12;4.30;;;1.48;;
42420;SDS011;28063;48.140;11.588;2023-12-20T14:22:38;5.85;;;2.55;;
42420;SDS011;28063;48.140;11.588;2023-12-20T14:25:10;7.55;;;4.55;;
42420;SDS011;28063;48.140;11.588;2023-12-20T14:27:37;3.53;;;2.72;;
42420;SDS011;28063;48.140;11.588;2023-12-20T14:30:03;5.93;;;2.10;;
42420;SDS011;28063;48.140;11.588;2023-12-20T14:32:30;3.72;;;2.17;;
42420;SDS011;28063;48.140;11.588;2023-12-20T14:34:56;5.13;;;1.80;;
42420;SDS011;28063;48.140;11.588;2023-12-20T14:37:22;3.35;;;2.40;;
42420;SDS011;28063;48.140;11.588;2023-12-20T14:39:49;6.15;;;2.30;;
42420;SDS011;28063;48.140;11.588;2023-12-20T14:42:15;3.75;;;1.80;;